sensor_id;sensor_type;location;lat;lon;timestamp;P1;durP1;ratioP1;P2;durP2;ratioP2
17153;SDS011;8692;52.164;7.558;2023-02-28T00:01:34;7.23;;;4.03;;
17153;SDS011;8692;52.164;7.558;2023-02-28T00:04:04;5.67;;;3.73;;
17153;SDS011;8692;52.164;7.558;2023-02-28T00:06:35;6.47;;;3.77;;
17153;SDS011;8692;52.164;7.558;2023-02-28T00:09:03;7.43;;;3.53;;
17153;SDS011;8692;52.164;7.558;2023-02-28T00:11:33;5.47;;;4.03;;
17153;SDS011;8692;52.164;7.558;2023-02-28T00:14:01;6.10;;;3.77;;
17153;SDS011;8692;52.164;7.558;2023-02-28T00:16:29;4.83;;;2.93;;
17153;SDS011;8692;52.164;7.558;2023-02-28T00:18:58;4.20;;;3.10;;
17153;SDS011;8692;52.164;7.558;2023-02-28T00:21:26;4.90;;;3.20;;
17153;SDS011;8692;52.164;7.558;2023-02-28T00:23:55;4.30;;;3.13;;
17153;SDS011;8692;52.164;7.558;2023-02-28T00:26:24;5.03;;;3.27;;
17153;SDS011;8692;52.164;7.558;2023-02-28T00:28:55;3.80;;;3.40;;
17153;SDS011;8692;52.164;7.558;2023-02-28T00:31:23;4.37;;;3.47;;
17153;SDS011;8692;52.164;7.558;2023-02-28T00:33:54;4.53;;;3.60;;
17153;SDS011;8692;52.164;7.558;2023-02-28T00:36:24;4.40;;;2.80;;
17153;SDS011;8692;52.164;7.558;2023-02-28T00:38:52;5.50;;;3.23;;
17153;SDS011;8692;52.164;7.558;2023-02-28T00:41:20;7.57;;;4.10;;
17153;SDS011;8692;52.164;7.558;2023-02-28T00:43:50;4.10;;;3.13;;
17153;SDS011;8692;52.164;7.558;2023-02-28T00:46:18;4.77;;;3.63;;
17153;SDS011;8692;52.164;7.558;2023-02-28T00:48:49;5.60;;;3.40;;
17153;SDS011;8692;52.164;7.558;2023-02-28T00:51:17;3.97;;;3.50;;
17153;SDS011;8692;52.164;7.558;2023-02-28T00:53:48;4.63;;;3.10;;
17153;SDS011;8692;52.164;7.558;2023-02-28T00:56:16;5.87;;;3.80;;
17153;SDS011;8692;52.164;7.558;2023-02-28T00:58:47;4.40;;;3.30;;
17153;SDS011;8692;52.164;7.558;2023-02-28T01:01:19;4.43;;;3.43;;
17153;SDS011;8692;52.164;7.558;2023-02-28T01:03:47;4.47;;;3.17;;
17153;SDS011;8692;52.164;7.558;2023-02-28T01:06:15;6.00;;;3.97;;
17153;SDS011;8692;52.164;7.558;2023-02-28T01:08:44;4.43;;;3.27;;
17153;SDS011;8692;52.164;7.558;2023-02-28T01:11:13;4.03;;;3.60;;
17153;SDS011;8692;52.164;7.558;2023-02-28T01:13:46;5.00;;;3.70;;
17153;SDS011;8692;52.164;7.558;2023-02-28T01:16:14;3.83;;;3.17;;
17153;SDS011;8692;52.164;7.558;2023-02-28T01:18:45;5.30;;;3.50;;
17153;SDS011;8692;52.164;7.558;2023-02-28T01:21:14;5.77;;;3.50;;
17153;SDS011;8692;52.164;7.558;2023-02-28T01:23:44;7.00;;;3.97;;
17153;SDS011;8692;52.164;7.558;2023-02-28T01:26:13;5.37;;;3.70;;
17153;SDS011;8692;52.164;7.558;2023-02-28T01:28:43;6.77;;;4.00;;
17153;SDS011;8692;52.164;7.558;2023-02-28T01:31:13;6.83;;;3.50;;
17153;SDS011;8692;52.164;7.558;2023-02-28T01:33:42;5.27;;;3.80;;
17153;SDS011;8692;52.164;7.558;2023-02-28T01:36:15;7.10;;;3.87;;
17153;SDS011;8692;52.164;7.558;2023-02-28T01:38:44;4.13;;;3.40;;
17153;SDS011;8692;52.164;7.558;2023-02-28T01:41:15;4.77;;;3.53;;
17153;SDS011;8692;52.164;7.558;2023-02-28T01:43:54;4.00;;;3.37;;
17153;SDS011;8692;52.164;7.558;2023-02-28T01:46:27;4.77;;;3.27;;
17153;SDS011;8692;52.164;7.558;2023-02-28T01:48:57;4.53;;;3.43;;
17153;SDS011;8692;52.164;7.558;2023-02-28T01:51:33;3.63;;;3.03;;
17153;SDS011;8692;52.164;7.558;2023-02-28T01:54:15;4.80;;;2.97;;
17153;SDS011;8692;52.164;7.558;2023-02-28T01:56:46;4.97;;;3.30;;
17153;SDS011;8692;52.164;7.558;2023-02-28T01:59:20;6.53;;;3.67;;
17153;SDS011;8692;52.164;7.558;2023-02-28T02:01:55;5.40;;;4.00;;
17153;SDS011;8692;52.164;7.558;2023-02-28T02:04:26;5.87;;;3.27;;
17153;SDS011;8692;52.164;7.558;2023-02-28T02:07:01;4.73;;;3.87;;
17153;SDS011;8692;52.164;7.558;2023-02-28T02:09:29;6.83;;;3.47;;
17153;SDS011;8692;52.164;7.558;2023-02-28T02:12:00;5.27;;;3.83;;
17153;SDS011;8692;52.164;7.558;2023-02-28T02:14:40;6.87;;;3.83;;
17153;SDS011;8692;52.164;7.558;2023-02-28T02:17:20;5.90;;;3.43;;
17153;SDS011;8692;52.164;7.558;2023-02-28T02:23:17;3.97;;;3.30;;
17153;SDS011;8692;52.164;7.558;2023-02-28T02:26:03;3.53;;;2.70;;
17153;SDS011;8692;52.164;7.558;2023-02-28T02:28:58;4.63;;;3.57;;
17153;SDS011;8692;52.164;7.558;2023-02-28T02:32:01;6.17;;;3.97;;
17153;SDS011;8692;52.164;7.558;2023-02-28T02:34:58;6.13;;;3.37;;
17153;SDS011;8692;52.164;7.558;2023-02-28T02:37:40;5.73;;;3.70;;
17153;SDS011;8692;52.164;7.558;2023-02-28T02:40:16;4.10;;;3.43;;
17153;SDS011;8692;52.164;7.558;2023-02-28T02:42:49;4.73;;;3.33;;
17153;SDS011;8692;52.164;7.558;2023-02-28T02:45:24;8.03;;;3.93;;
17153;SDS011;8692;52.164;7.558;2023-02-28T02:47:56;6.40;;;3.77;;
17153;SDS011;8692;52.164;7.558;2023-02-28T02:50:31;7.60;;;4.00;;
17153;SDS011;8692;52.164;7.558;2023-02-28T02:53:04;4.53;;;3.20;;
17153;SDS011;8692;52.164;7.558;2023-02-28T02:55:38;5.13;;;3.60;;
17153;SDS011;8692;52.164;7.558;2023-02-28T02:58:13;5.93;;;4.13;;
17153;SDS011;8692;52.164;7.558;2023-02-28T03:00:47;5.77;;;3.47;;
17153;SDS011;8692;52.164;7.558;2023-02-28T03:03:20;3.93;;;3.00;;
17153;SDS011;8692;52.164;7.558;2023-02-28T03:05:59;5.43;;;3.63;;
17153;SDS011;8692;52.164;7.558;2023-02-28T03:08:34;4.73;;;3.20;;
17153;SDS011;8692;52.164;7.558;2023-02-28T03:11:04;5.23;;;3.83;;
17153;SDS011;8692;52.164;7.558;2023-02-28T03:14:00;5.10;;;3.47;;
17153;SDS011;8692;52.164;7.558;2023-02-28T03:16:48;5.97;;;3.87;;
17153;SDS011;8692;52.164;7.558;2023-02-28T03:19:43;6.17;;;3.77;;
17153;SDS011;8692;52.164;7.558;2023-02-28T03:22:23;6.03;;;3.60;;
17153;SDS011;8692;52.164;7.558;2023-02-28T03:25:06;4.73;;;3.10;;
17153;SDS011;8692;52.164;7.558;2023-02-28T03:27:41;5.50;;;3.67;;
17153;SDS011;8692;52.164;7.558;2023-02-28T03:30:14;5.87;;;3.40;;
17153;SDS011;8692;52.164;7.558;2023-02-28T03:32:51;5.57;;;3.77;;
17153;SDS011;8692;52.164;7.558;2023-02-28T03:35:26;5.00;;;3.50;;
17153;SDS011;8692;52.164;7.558;2023-02-28T03:38:00;8.77;;;5.20;;
17153;SDS011;8692;52.164;7.558;2023-02-28T03:40:33;4.97;;;3.50;;
17153;SDS011;8692;52.164;7.558;2023-02-28T03:43:06;5.57;;;3.50;;
17153;SDS011;8692;52.164;7.558;2023-02-28T03:45:41;4.77;;;3.47;;
17153;SDS011;8692;52.164;7.558;2023-02-28T03:48:13;5.10;;;3.30;;
17153;SDS011;8692;52.164;7.558;2023-02-28T03:50:48;5.13;;;3.57;;
17153;SDS011;8692;52.164;7.558;2023-02-28T03:53:23;4.93;;;3.67;;
17153;SDS011;8692;52.164;7.558;2023-02-28T03:55:57;3.77;;;2.93;;
17153;SDS011;8692;52.164;7.558;2023-02-28T03:58:31;4.53;;;3.43;;
17153;SDS011;8692;52.164;7.558;2023-02-28T04:01:07;5.10;;;3.53;;
17153;SDS011;8692;52.164;7.558;2023-02-28T04:03:40;5.47;;;3.33;;
17153;SDS011;8692;52.164;7.558;2023-02-28T04:06:12;4.27;;;2.83;;
17153;SDS011;8692;52.164;7.558;2023-02-28T04:08:46;4.77;;;3.27;;
17153;SDS011;8692;52.164;7.558;2023-02-28T04:11:18;5.80;;;3.60;;
17153;SDS011;8692;52.164;7.558;2023-02-28T04:13:49;5.47;;;3.10;;
17153;SDS011;8692;52.164;7.558;2023-02-28T04:16:17;5.30;;;3.33;;
17153;SDS011;8692;52.164;7.558;2023-02-28T04:19:00;4.13;;;3.47;;
17153;SDS011;8692;52.164;7.558;2023-02-28T04:21:30;4.43;;;3.40;;
17153;SDS011;8692;52.164;7.558;2023-02-28T04:24:01;4.80;;;3.10;;
17153;SDS011;8692;52.164;7.558;2023-02-28T04:26:29;4.33;;;3.43;;
17153;SDS011;8692;52.164;7.558;2023-02-28T04:28:58;5.70;;;3.80;;
17153;SDS011;8692;52.164;7.558;2023-02-28T04:31:29;5.03;;;3.00;;
17153;SDS011;8692;52.164;7.558;2023-02-28T04:33:58;4.97;;;3.00;;
17153;SDS011;8692;52.164;7.558;2023-02-28T04:36:27;5.17;;;3.00;;
17153;SDS011;8692;52.164;7.558;2023-02-28T04:38:55;4.67;;;3.47;;
17153;SDS011;8692;52.164;7.558;2023-02-28T04:41:27;4.40;;;3.23;;
17153;SDS011;8692;52.164;7.558;2023-02-28T04:43:58;7.13;;;3.60;;
17153;SDS011;8692;52.164;7.558;2023-02-28T04:46:26;6.00;;;3.37;;
17153;SDS011;8692;52.164;7.558;2023-02-28T04:48:59;4.30;;;2.93;;
17153;SDS011;8692;52.164;7.558;2023-02-28T04:51:27;3.57;;;3.23;;
17153;SDS011;8692;52.164;7.558;2023-02-28T04:53:56;3.77;;;3.13;;
17153;SDS011;8692;52.164;7.558;2023-02-28T04:56:28;3.63;;;3.07;;
17153;SDS011;8692;52.164;7.558;2023-02-28T04:58:56;4.27;;;3.17;;
17153;SDS011;8692;52.164;7.558;2023-02-28T05:01:25;4.20;;;3.10;;
17153;SDS011;8692;52.164;7.558;2023-02-28T05:03:59;5.40;;;3.53;;
17153;SDS011;8692;52.164;7.558;2023-02-28T05:06:29;3.70;;;3.20;;
17153;SDS011;8692;52.164;7.558;2023-02-28T05:08:58;4.03;;;3.27;;
17153;SDS011;8692;52.164;7.558;2023-02-28T05:11:29;5.80;;;3.50;;
17153;SDS011;8692;52.164;7.558;2023-02-28T05:14:01;4.00;;;3.03;;
17153;SDS011;8692;52.164;7.558;2023-02-28T05:16:30;4.90;;;3.17;;
17153;SDS011;8692;52.164;7.558;2023-02-28T05:19:01;3.70;;;2.60;;
17153;SDS011;8692;52.164;7.558;2023-02-28T05:21:30;4.90;;;3.13;;
17153;SDS011;8692;52.164;7.558;2023-02-28T05:24:00;5.50;;;3.60;;
17153;SDS011;8692;52.164;7.558;2023-02-28T05:26:30;3.33;;;2.80;;
17153;SDS011;8692;52.164;7.558;2023-02-28T05:29:03;3.73;;;2.97;;
17153;SDS011;8692;52.164;7.558;2023-02-28T05:31:34;5.53;;;3.70;;
17153;SDS011;8692;52.164;7.558;2023-02-28T05:34:03;7.23;;;3.77;;
17153;SDS011;8692;52.164;7.558;2023-02-28T05:36:36;5.13;;;3.40;;
17153;SDS011;8692;52.164;7.558;2023-02-28T05:39:04;3.57;;;3.20;;
17153;SDS011;8692;52.164;7.558;2023-02-28T05:41:35;5.60;;;3.40;;
17153;SDS011;8692;52.164;7.558;2023-02-28T05:44:03;4.47;;;3.00;;
17153;SDS011;8692;52.164;7.558;2023-02-28T05:46:34;5.37;;;3.23;;
17153;SDS011;8692;52.164;7.558;2023-02-28T05:49:02;5.37;;;3.63;;
17153;SDS011;8692;52.164;7.558;2023-02-28T05:51:31;3.67;;;2.47;;
17153;SDS011;8692;52.164;7.558;2023-02-28T05:54:00;7.07;;;3.10;;
17153;SDS011;8692;52.164;7.558;2023-02-28T05:56:29;5.37;;;3.40;;
17153;SDS011;8692;52.164;7.558;2023-02-28T05:58:58;6.27;;;3.60;;
17153;SDS011;8692;52.164;7.558;2023-02-28T06:01:31;4.87;;;3.53;;
17153;SDS011;8692;52.164;7.558;2023-02-28T06:04:00;5.70;;;3.30;;
17153;SDS011;8692;52.164;7.558;2023-02-28T06:06:29;5.10;;;3.43;;
17153;SDS011;8692;52.164;7.558;2023-02-28T06:09:02;5.70;;;3.30;;
17153;SDS011;8692;52.164;7.558;2023-02-28T06:11:31;5.67;;;3.53;;
17153;SDS011;8692;52.164;7.558;2023-02-28T06:14:03;4.87;;;3.23;;
17153;SDS011;8692;52.164;7.558;2023-02-28T06:16:32;6.07;;;3.20;;
17153;SDS011;8692;52.164;7.558;2023-02-28T06:19:02;8.43;;;3.87;;
17153;SDS011;8692;52.164;7.558;2023-02-28T06:21:31;4.77;;;3.37;;
17153;SDS011;8692;52.164;7.558;2023-02-28T06:23:59;4.80;;;3.63;;
17153;SDS011;8692;52.164;7.558;2023-02-28T06:26:28;9.13;;;3.70;;
17153;SDS011;8692;52.164;7.558;2023-02-28T06:28:56;6.25;;;4.82;;
17153;SDS011;8692;52.164;7.558;2023-02-28T06:31:29;4.80;;;3.83;;
17153;SDS011;8692;52.164;7.558;2023-02-28T06:33:57;6.10;;;3.87;;
17153;SDS011;8692;52.164;7.558;2023-02-28T06:36:26;4.77;;;3.57;;
17153;SDS011;8692;52.164;7.558;2023-02-28T06:38:56;6.07;;;3.93;;
17153;SDS011;8692;52.164;7.558;2023-02-28T06:41:25;4.27;;;3.07;;
17153;SDS011;8692;52.164;7.558;2023-02-28T06:43:55;4.60;;;3.00;;
17153;SDS011;8692;52.164;7.558;2023-02-28T06:46:24;4.70;;;3.37;;
17153;SDS011;8692;52.164;7.558;2023-02-28T06:48:53;4.67;;;3.30;;
17153;SDS011;8692;52.164;7.558;2023-02-28T06:51:21;4.10;;;3.23;;
17153;SDS011;8692;52.164;7.558;2023-02-28T06:53:50;4.93;;;2.90;;
17153;SDS011;8692;52.164;7.558;2023-02-28T06:56:21;5.23;;;3.77;;
17153;SDS011;8692;52.164;7.558;2023-02-28T06:58:50;4.63;;;3.07;;
17153;SDS011;8692;52.164;7.558;2023-02-28T07:01:21;4.80;;;3.10;;
17153;SDS011;8692;52.164;7.558;2023-02-28T07:03:50;4.97;;;3.10;;
17153;SDS011;8692;52.164;7.558;2023-02-28T07:06:21;4.17;;;3.07;;
17153;SDS011;8692;52.164;7.558;2023-02-28T07:08:50;4.33;;;3.20;;
17153;SDS011;8692;52.164;7.558;2023-02-28T07:11:23;3.70;;;3.03;;
17153;SDS011;8692;52.164;7.558;2023-02-28T07:13:54;4.70;;;3.03;;
17153;SDS011;8692;52.164;7.558;2023-02-28T07:16:23;4.20;;;3.00;;
17153;SDS011;8692;52.164;7.558;2023-02-28T07:18:52;4.60;;;3.37;;
17153;SDS011;8692;52.164;7.558;2023-02-28T07:21:22;3.67;;;2.90;;
17153;SDS011;8692;52.164;7.558;2023-02-28T07:23:51;6.03;;;3.53;;
17153;SDS011;8692;52.164;7.558;2023-02-28T07:26:19;4.50;;;3.27;;
17153;SDS011;8692;52.164;7.558;2023-02-28T07:28:48;4.13;;;3.30;;
17153;SDS011;8692;52.164;7.558;2023-02-28T07:31:16;4.17;;;3.17;;
17153;SDS011;8692;52.164;7.558;2023-02-28T07:33:45;6.30;;;3.27;;
17153;SDS011;8692;52.164;7.558;2023-02-28T07:36:14;3.47;;;2.97;;
17153;SDS011;8692;52.164;7.558;2023-02-28T07:38:48;4.10;;;2.93;;
17153;SDS011;8692;52.164;7.558;2023-02-28T07:41:17;4.80;;;3.30;;
17153;SDS011;8692;52.164;7.558;2023-02-28T07:43:47;4.37;;;3.23;;
17153;SDS011;8692;52.164;7.558;2023-02-28T07:46:17;5.27;;;3.40;;
17153;SDS011;8692;52.164;7.558;2023-02-28T07:48:47;5.20;;;3.23;;
17153;SDS011;8692;52.164;7.558;2023-02-28T07:51:18;5.47;;;3.70;;
17153;SDS011;8692;52.164;7.558;2023-02-28T07:53:50;6.20;;;4.13;;
17153;SDS011;8692;52.164;7.558;2023-02-28T07:56:19;6.70;;;4.80;;
17153;SDS011;8692;52.164;7.558;2023-02-28T07:58:47;5.13;;;3.70;;
17153;SDS011;8692;52.164;7.558;2023-02-28T08:01:16;5.80;;;3.43;;
17153;SDS011;8692;52.164;7.558;2023-02-28T08:03:45;5.03;;;3.30;;
17153;SDS011;8692;52.164;7.558;2023-02-28T08:06:16;3.90;;;2.90;;
17153;SDS011;8692;52.164;7.558;2023-02-28T08:08:47;4.10;;;3.37;;
17153;SDS011;8692;52.164;7.558;2023-02-28T08:11:17;4.40;;;3.27;;
17153;SDS011;8692;52.164;7.558;2023-02-28T08:13:46;4.33;;;2.77;;
17153;SDS011;8692;52.164;7.558;2023-02-28T08:16:17;4.03;;;2.70;;
17153;SDS011;8692;52.164;7.558;2023-02-28T08:18:49;3.47;;;2.47;;
17153;SDS011;8692;52.164;7.558;2023-02-28T08:21:20;3.20;;;2.03;;
17153;SDS011;8692;52.164;7.558;2023-02-28T08:23:49;2.77;;;2.10;;
17153;SDS011;8692;52.164;7.558;2023-02-28T08:26:22;3.00;;;1.73;;
17153;SDS011;8692;52.164;7.558;2023-02-28T08:28:53;3.23;;;2.07;;
17153;SDS011;8692;52.164;7.558;2023-02-28T08:31:23;9.63;;;2.20;;
17153;SDS011;8692;52.164;7.558;2023-02-28T08:33:53;2.93;;;1.60;;
17153;SDS011;8692;52.164;7.558;2023-02-28T08:36:25;5.13;;;2.03;;
17153;SDS011;8692;52.164;7.558;2023-02-28T08:38:56;2.53;;;1.60;;
17153;SDS011;8692;52.164;7.558;2023-02-28T08:41:25;2.85;;;1.77;;
17153;SDS011;8692;52.164;7.558;2023-02-28T08:43:54;1.70;;;1.60;;
17153;SDS011;8692;52.164;7.558;2023-02-28T08:46:22;2.37;;;1.80;;
17153;SDS011;8692;52.164;7.558;2023-02-28T08:48:51;3.77;;;1.57;;
17153;SDS011;8692;52.164;7.558;2023-02-28T08:51:20;2.27;;;1.40;;
17153;SDS011;8692;52.164;7.558;2023-02-28T08:53:53;1.60;;;1.50;;
17153;SDS011;8692;52.164;7.558;2023-02-28T08:56:22;1.53;;;1.30;;
17153;SDS011;8692;52.164;7.558;2023-02-28T08:58:51;3.10;;;1.53;;
17153;SDS011;8692;52.164;7.558;2023-02-28T09:01:25;1.70;;;1.10;;
17153;SDS011;8692;52.164;7.558;2023-02-28T09:03:58;4.00;;;1.17;;
17153;SDS011;8692;52.164;7.558;2023-02-28T09:06:27;2.60;;;1.23;;
17153;SDS011;8692;52.164;7.558;2023-02-28T09:08:56;2.10;;;1.27;;
17153;SDS011;8692;52.164;7.558;2023-02-28T09:11:27;1.30;;;1.07;;
17153;SDS011;8692;52.164;7.558;2023-02-28T09:13:59;2.30;;;1.30;;
17153;SDS011;8692;52.164;7.558;2023-02-28T09:16:30;2.47;;;1.60;;
17153;SDS011;8692;52.164;7.558;2023-02-28T09:18:59;2.37;;;1.27;;
17153;SDS011;8692;52.164;7.558;2023-02-28T09:21:30;3.07;;;1.00;;
17153;SDS011;8692;52.164;7.558;2023-02-28T09:24:01;1.10;;;0.90;;
17153;SDS011;8692;52.164;7.558;2023-02-28T09:26:29;1.40;;;0.87;;
17153;SDS011;8692;52.164;7.558;2023-02-28T09:29:10;1.97;;;1.20;;
17153;SDS011;8692;52.164;7.558;2023-02-28T09:31:38;2.20;;;1.07;;
17153;SDS011;8692;52.164;7.558;2023-02-28T09:34:06;1.40;;;1.10;;
17153;SDS011;8692;52.164;7.558;2023-02-28T09:36:34;1.00;;;0.80;;
17153;SDS011;8692;52.164;7.558;2023-02-28T09:39:11;1.63;;;1.30;;
17153;SDS011;8692;52.164;7.558;2023-02-28T09:41:42;1.10;;;1.00;;
17153;SDS011;8692;52.164;7.558;2023-02-28T09:44:20;0.60;;;0.43;;
17153;SDS011;8692;52.164;7.558;2023-02-28T09:46:54;2.13;;;0.67;;
17153;SDS011;8692;52.164;7.558;2023-02-28T09:49:28;4.37;;;0.77;;
17153;SDS011;8692;52.164;7.558;2023-02-28T09:52:05;1.50;;;0.90;;
17153;SDS011;8692;52.164;7.558;2023-02-28T09:54:37;2.63;;;1.20;;
17153;SDS011;8692;52.164;7.558;2023-02-28T09:57:07;1.37;;;0.70;;
17153;SDS011;8692;52.164;7.558;2023-02-28T09:59:47;1.93;;;1.00;;
17153;SDS011;8692;52.164;7.558;2023-02-28T10:02:38;1.20;;;0.63;;
17153;SDS011;8692;52.164;7.558;2023-02-28T10:05:16;1.40;;;0.83;;
17153;SDS011;8692;52.164;7.558;2023-02-28T10:07:50;0.70;;;0.70;;
17153;SDS011;8692;52.164;7.558;2023-02-28T10:10:33;0.60;;;0.60;;
17153;SDS011;8692;52.164;7.558;2023-02-28T10:13:06;1.20;;;0.80;;
17153;SDS011;8692;52.164;7.558;2023-02-28T10:15:44;1.13;;;0.90;;
17153;SDS011;8692;52.164;7.558;2023-02-28T10:18:19;1.17;;;0.70;;
17153;SDS011;8692;52.164;7.558;2023-02-28T10:20:51;1.00;;;0.90;;
17153;SDS011;8692;52.164;7.558;2023-02-28T10:23:24;1.67;;;0.90;;
17153;SDS011;8692;52.164;7.558;2023-02-28T10:25:57;0.90;;;0.70;;
17153;SDS011;8692;52.164;7.558;2023-02-28T10:28:28;2.47;;;1.03;;
17153;SDS011;8692;52.164;7.558;2023-02-28T10:30:59;1.03;;;0.80;;
17153;SDS011;8692;52.164;7.558;2023-02-28T10:33:29;1.67;;;1.00;;
17153;SDS011;8692;52.164;7.558;2023-02-28T10:36:01;1.30;;;0.97;;
17153;SDS011;8692;52.164;7.558;2023-02-28T10:38:32;1.07;;;0.80;;
17153;SDS011;8692;52.164;7.558;2023-02-28T10:41:05;0.87;;;0.80;;
17153;SDS011;8692;52.164;7.558;2023-02-28T10:43:37;2.30;;;1.50;;
17153;SDS011;8692;52.164;7.558;2023-02-28T10:46:13;1.30;;;0.80;;
17153;SDS011;8692;52.164;7.558;2023-02-28T10:49:00;2.70;;;1.23;;
17153;SDS011;8692;52.164;7.558;2023-02-28T10:51:34;2.53;;;1.00;;
17153;SDS011;8692;52.164;7.558;2023-02-28T10:54:14;1.90;;;1.03;;
17153;SDS011;8692;52.164;7.558;2023-02-28T10:56:54;2.17;;;1.00;;
17153;SDS011;8692;52.164;7.558;2023-02-28T10:59:37;1.23;;;0.80;;
17153;SDS011;8692;52.164;7.558;2023-02-28T11:07:51;3.27;;;1.40;;
17153;SDS011;8692;52.164;7.558;2023-02-28T11:10:21;2.97;;;0.50;;
17153;SDS011;8692;52.164;7.558;2023-02-28T11:12:54;1.13;;;0.93;;
17153;SDS011;8692;52.164;7.558;2023-02-28T11:15:28;1.20;;;0.90;;
17153;SDS011;8692;52.164;7.558;2023-02-28T11:18:00;1.97;;;0.90;;
17153;SDS011;8692;52.164;7.558;2023-02-28T11:20:31;2.63;;;1.27;;
17153;SDS011;8692;52.164;7.558;2023-02-28T11:23:01;3.27;;;1.87;;
17153;SDS011;8692;52.164;7.558;2023-02-28T11:25:32;1.47;;;1.13;;
17153;SDS011;8692;52.164;7.558;2023-02-28T11:28:03;2.90;;;1.10;;
17153;SDS011;8692;52.164;7.558;2023-02-28T11:30:34;1.20;;;1.10;;
17153;SDS011;8692;52.164;7.558;2023-02-28T11:33:25;1.73;;;1.10;;
17153;SDS011;8692;52.164;7.558;2023-02-28T11:35:57;1.87;;;0.90;;
17153;SDS011;8692;52.164;7.558;2023-02-28T11:38:28;1.20;;;0.97;;
17153;SDS011;8692;52.164;7.558;2023-02-28T11:41:01;2.40;;;1.10;;
17153;SDS011;8692;52.164;7.558;2023-02-28T11:43:45;1.50;;;1.10;;
17153;SDS011;8692;52.164;7.558;2023-02-28T11:46:27;1.93;;;1.30;;
17153;SDS011;8692;52.164;7.558;2023-02-28T11:49:05;1.07;;;0.83;;
17153;SDS011;8692;52.164;7.558;2023-02-28T11:51:47;3.03;;;1.10;;
17153;SDS011;8692;52.164;7.558;2023-02-28T11:57:31;2.40;;;1.37;;
17153;SDS011;8692;52.164;7.558;2023-02-28T12:00:12;3.10;;;1.30;;
17153;SDS011;8692;52.164;7.558;2023-02-28T12:02:57;3.47;;;1.43;;
17153;SDS011;8692;52.164;7.558;2023-02-28T12:05:38;2.20;;;1.00;;
17153;SDS011;8692;52.164;7.558;2023-02-28T12:08:17;4.37;;;1.40;;
17153;SDS011;8692;52.164;7.558;2023-02-28T12:10:57;1.57;;;1.23;;
17153;SDS011;8692;52.164;7.558;2023-02-28T12:13:36;2.03;;;1.00;;
17153;SDS011;8692;52.164;7.558;2023-02-28T12:16:21;2.97;;;1.93;;
17153;SDS011;8692;52.164;7.558;2023-02-28T12:19:17;3.30;;;1.27;;
17153;SDS011;8692;52.164;7.558;2023-02-28T12:21:52;1.30;;;1.20;;
17153;SDS011;8692;52.164;7.558;2023-02-28T12:24:35;2.13;;;1.40;;
17153;SDS011;8692;52.164;7.558;2023-02-28T12:27:18;2.07;;;1.10;;
17153;SDS011;8692;52.164;7.558;2023-02-28T12:29:52;1.43;;;1.30;;
17153;SDS011;8692;52.164;7.558;2023-02-28T12:32:26;2.63;;;1.60;;
17153;SDS011;8692;52.164;7.558;2023-02-28T12:35:00;2.40;;;1.50;;
17153;SDS011;8692;52.164;7.558;2023-02-28T12:37:34;1.80;;;1.37;;
17153;SDS011;8692;52.164;7.558;2023-02-28T12:40:08;3.00;;;1.13;;
17153;SDS011;8692;52.164;7.558;2023-02-28T12:42:41;1.27;;;1.17;;
17153;SDS011;8692;52.164;7.558;2023-02-28T12:45:15;1.53;;;1.43;;
17153;SDS011;8692;52.164;7.558;2023-02-28T12:47:50;2.13;;;1.77;;
17153;SDS011;8692;52.164;7.558;2023-02-28T12:50:24;2.30;;;1.60;;
17153;SDS011;8692;52.164;7.558;2023-02-28T12:52:58;1.50;;;1.40;;
17153;SDS011;8692;52.164;7.558;2023-02-28T12:55:31;3.80;;;1.23;;
17153;SDS011;8692;52.164;7.558;2023-02-28T12:58:10;1.33;;;1.10;;
17153;SDS011;8692;52.164;7.558;2023-02-28T13:00:46;2.77;;;1.20;;
17153;SDS011;8692;52.164;7.558;2023-02-28T13:06:28;1.03;;;0.97;;
17153;SDS011;8692;52.164;7.558;2023-02-28T13:09:12;2.40;;;1.33;;
17153;SDS011;8692;52.164;7.558;2023-02-28T13:11:43;1.33;;;0.93;;
17153;SDS011;8692;52.164;7.558;2023-02-28T13:14:18;2.60;;;0.93;;
17153;SDS011;8692;52.164;7.558;2023-02-28T13:17:02;3.97;;;1.50;;
17153;SDS011;8692;52.164;7.558;2023-02-28T13:19:39;3.10;;;1.30;;
17153;SDS011;8692;52.164;7.558;2023-02-28T13:22:16;3.43;;;1.90;;
17153;SDS011;8692;52.164;7.558;2023-02-28T13:24:49;1.60;;;1.47;;
17153;SDS011;8692;52.164;7.558;2023-02-28T13:27:23;1.23;;;1.13;;
17153;SDS011;8692;52.164;7.558;2023-02-28T13:29:59;1.47;;;1.10;;
17153;SDS011;8692;52.164;7.558;2023-02-28T13:32:32;2.30;;;1.90;;
17153;SDS011;8692;52.164;7.558;2023-02-28T13:38:21;2.80;;;2.00;;
17153;SDS011;8692;52.164;7.558;2023-02-28T13:44:13;2.07;;;1.40;;
17153;SDS011;8692;52.164;7.558;2023-02-28T13:56:03;3.63;;;2.17;;
17153;SDS011;8692;52.164;7.558;2023-02-28T13:58:41;5.20;;;2.37;;
17153;SDS011;8692;52.164;7.558;2023-02-28T14:07:16;3.60;;;1.77;;
17153;SDS011;8692;52.164;7.558;2023-02-28T14:09:50;2.37;;;1.50;;
17153;SDS011;8692;52.164;7.558;2023-02-28T14:15:30;3.57;;;1.87;;
17153;SDS011;8692;52.164;7.558;2023-02-28T14:18:14;4.40;;;2.87;;
17153;SDS011;8692;52.164;7.558;2023-02-28T14:20:47;5.43;;;3.40;;
17153;SDS011;8692;52.164;7.558;2023-02-28T14:23:21;1.60;;;1.50;;
17153;SDS011;8692;52.164;7.558;2023-02-28T14:26:12;1.53;;;1.40;;
17153;SDS011;8692;52.164;7.558;2023-02-28T14:28:51;2.37;;;1.60;;
17153;SDS011;8692;52.164;7.558;2023-02-28T14:31:38;1.87;;;1.30;;
17153;SDS011;8692;52.164;7.558;2023-02-28T14:34:23;2.40;;;1.83;;
17153;SDS011;8692;52.164;7.558;2023-02-28T14:37:02;2.50;;;1.53;;
17153;SDS011;8692;52.164;7.558;2023-02-28T14:39:31;2.17;;;1.60;;
17153;SDS011;8692;52.164;7.558;2023-02-28T14:42:03;2.47;;;1.50;;
17153;SDS011;8692;52.164;7.558;2023-02-28T14:44:56;4.43;;;1.95;;
17153;SDS011;8692;52.164;7.558;2023-02-28T14:47:27;2.03;;;1.67;;
17153;SDS011;8692;52.164;7.558;2023-02-28T14:49:58;3.40;;;1.43;;
17153;SDS011;8692;52.164;7.558;2023-02-28T14:52:28;1.90;;;1.50;;
17153;SDS011;8692;52.164;7.558;2023-02-28T14:55:01;1.60;;;1.47;;
17153;SDS011;8692;52.164;7.558;2023-02-28T14:57:32;1.47;;;1.37;;
17153;SDS011;8692;52.164;7.558;2023-02-28T15:00:03;1.90;;;1.73;;
17153;SDS011;8692;52.164;7.558;2023-02-28T15:02:41;3.37;;;1.97;;
17153;SDS011;8692;52.164;7.558;2023-02-28T15:05:16;2.80;;;1.97;;
17153;SDS011;8692;52.164;7.558;2023-02-28T15:08:01;1.50;;;1.40;;
17153;SDS011;8692;52.164;7.558;2023-02-28T15:10:36;1.57;;;1.30;;
17153;SDS011;8692;52.164;7.558;2023-02-28T15:13:11;1.80;;;1.70;;
17153;SDS011;8692;52.164;7.558;2023-02-28T15:15:43;1.67;;;1.57;;
17153;SDS011;8692;52.164;7.558;2023-02-28T15:18:33;2.07;;;1.97;;
17153;SDS011;8692;52.164;7.558;2023-02-28T15:21:09;2.37;;;1.70;;
17153;SDS011;8692;52.164;7.558;2023-02-28T15:23:44;2.30;;;1.70;;
17153;SDS011;8692;52.164;7.558;2023-02-28T15:26:19;2.17;;;1.60;;
17153;SDS011;8692;52.164;7.558;2023-02-28T15:28:54;1.83;;;1.60;;
17153;SDS011;8692;52.164;7.558;2023-02-28T15:31:27;1.80;;;1.47;;
17153;SDS011;8692;52.164;7.558;2023-02-28T15:34:18;2.30;;;1.90;;
17153;SDS011;8692;52.164;7.558;2023-02-28T15:36:52;3.00;;;1.70;;
17153;SDS011;8692;52.164;7.558;2023-02-28T15:39:21;2.80;;;1.70;;
17153;SDS011;8692;52.164;7.558;2023-02-28T15:44:39;3.40;;;1.60;;
17153;SDS011;8692;52.164;7.558;2023-02-28T15:47:14;2.90;;;1.77;;
17153;SDS011;8692;52.164;7.558;2023-02-28T15:49:47;5.80;;;3.17;;
17153;SDS011;8692;52.164;7.558;2023-02-28T15:52:21;2.50;;;2.17;;
17153;SDS011;8692;52.164;7.558;2023-02-28T15:54:57;2.30;;;2.07;;
17153;SDS011;8692;52.164;7.558;2023-02-28T15:57:27;4.53;;;2.43;;
17153;SDS011;8692;52.164;7.558;2023-02-28T16:00:02;5.40;;;3.77;;
17153;SDS011;8692;52.164;7.558;2023-02-28T16:02:37;4.63;;;2.70;;
17153;SDS011;8692;52.164;7.558;2023-02-28T16:05:19;3.47;;;2.20;;
17153;SDS011;8692;52.164;7.558;2023-02-28T16:07:54;2.10;;;1.70;;
17153;SDS011;8692;52.164;7.558;2023-02-28T16:10:24;1.90;;;1.70;;
17153;SDS011;8692;52.164;7.558;2023-02-28T16:12:54;4.07;;;1.83;;
17153;SDS011;8692;52.164;7.558;2023-02-28T16:15:24;2.80;;;1.47;;
17153;SDS011;8692;52.164;7.558;2023-02-28T16:17:55;2.40;;;2.00;;
17153;SDS011;8692;52.164;7.558;2023-02-28T16:20:26;2.97;;;1.97;;